sensor_id;sensor_type;location;lat;lon;timestamp;P1;durP1;ratioP1;P2;durP2;ratioP2
20034;SDS011;10178;48.034;9.800;2023-04-03T00:02:16;2.72;;;2.47;;
20034;SDS011;10178;48.034;9.800;2023-04-03T00:04:42;3.20;;;2.90;;
20034;SDS011;10178;48.034;9.800;2023-04-03T00:07:07;3.38;;;3.10;;
20034;SDS011;10178;48.034;9.800;2023-04-03T00:09:33;2.80;;;2.60;;
20034;SDS011;10178;48.034;9.800;2023-04-03T00:11:59;3.30;;;2.83;;
20034;SDS011;10178;48.034;9.800;2023-04-03T00:14:25;2.65;;;2.45;;
20034;SDS011;10178;48.034;9.800;2023-04-03T00:16:50;3.00;;;2.70;;
20034;SDS011;10178;48.034;9.800;2023-04-03T00:19:16;3.28;;;2.97;;
20034;SDS011;10178;48.034;9.800;2023-04-03T00:21:42;2.95;;;2.75;;
20034;SDS011;10178;48.034;9.800;2023-04-03T00:24:07;5.15;;;4.65;;
20034;SDS011;10178;48.034;9.800;2023-04-03T00:26:33;4.00;;;3.70;;
20034;SDS011;10178;48.034;9.800;2023-04-03T00:28:58;5.33;;;4.57;;
20034;SDS011;10178;48.034;9.800;2023-04-03T00:31:24;4.67;;;4.27;;
20034;SDS011;10178;48.034;9.800;2023-04-03T00:33:50;5.53;;;4.30;;
20034;SDS011;10178;48.034;9.800;2023-04-03T00:36:15;5.07;;;3.97;;
20034;SDS011;10178;48.034;9.800;2023-04-03T00:38:41;3.63;;;3.33;;
20034;SDS011;10178;48.034;9.800;2023-04-03T00:41:07;3.88;;;3.58;;
20034;SDS011;10178;48.034;9.800;2023-04-03T00:43:33;4.73;;;3.97;;
20034;SDS011;10178;48.034;9.800;2023-04-03T00:45:59;4.13;;;3.72;;
20034;SDS011;10178;48.034;9.800;2023-04-03T00:48:27;3.83;;;3.53;;
20034;SDS011;10178;48.034;9.800;2023-04-03T00:51:11;4.87;;;4.10;;
20034;SDS011;10178;48.034;9.800;2023-04-03T00:53:49;4.05;;;3.60;;
20034;SDS011;10178;48.034;9.800;2023-04-03T00:56:19;4.57;;;3.72;;
20034;SDS011;10178;48.034;9.800;2023-04-03T00:58:50;4.25;;;3.85;;
20034;SDS011;10178;48.034;9.800;2023-04-03T01:01:23;5.47;;;4.07;;
20034;SDS011;10178;48.034;9.800;2023-04-03T01:03:51;4.47;;;4.07;;
20034;SDS011;10178;48.034;9.800;2023-04-03T01:06:17;4.35;;;3.95;;
20034;SDS011;10178;48.034;9.800;2023-04-03T01:08:48;4.38;;;3.97;;
20034;SDS011;10178;48.034;9.800;2023-04-03T01:11:15;6.10;;;4.15;;
20034;SDS011;10178;48.034;9.800;2023-04-03T01:13:40;4.07;;;3.70;;
20034;SDS011;10178;48.034;9.800;2023-04-03T01:16:06;5.63;;;4.07;;
20034;SDS011;10178;48.034;9.800;2023-04-03T01:18:33;4.18;;;3.78;;
20034;SDS011;10178;48.034;9.800;2023-04-03T01:21:21;4.65;;;4.25;;
20034;SDS011;10178;48.034;9.800;2023-04-03T01:24:25;5.18;;;4.10;;
20034;SDS011;10178;48.034;9.800;2023-04-03T01:26:53;4.55;;;4.15;;
20034;SDS011;10178;48.034;9.800;2023-04-03T01:29:18;4.63;;;4.15;;
20034;SDS011;10178;48.034;9.800;2023-04-03T01:31:49;5.00;;;4.13;;
20034;SDS011;10178;48.034;9.800;2023-04-03T01:34:16;4.73;;;3.80;;
20034;SDS011;10178;48.034;9.800;2023-04-03T01:36:41;4.17;;;3.73;;
20034;SDS011;10178;48.034;9.800;2023-04-03T01:39:07;4.60;;;4.10;;
20034;SDS011;10178;48.034;9.800;2023-04-03T01:41:33;4.78;;;4.18;;
20034;SDS011;10178;48.034;9.800;2023-04-03T01:43:59;5.30;;;4.28;;
20034;SDS011;10178;48.034;9.800;2023-04-03T01:46:25;4.43;;;4.03;;
20034;SDS011;10178;48.034;9.800;2023-04-03T01:48:50;4.28;;;3.88;;
20034;SDS011;10178;48.034;9.800;2023-04-03T01:51:16;4.40;;;4.00;;
20034;SDS011;10178;48.034;9.800;2023-04-03T01:53:42;4.38;;;4.00;;
20034;SDS011;10178;48.034;9.800;2023-04-03T01:56:07;4.95;;;4.28;;
20034;SDS011;10178;48.034;9.800;2023-04-03T01:58:33;5.50;;;4.50;;
20034;SDS011;10178;48.034;9.800;2023-04-03T02:00:59;4.53;;;4.13;;
20034;SDS011;10178;48.034;9.800;2023-04-03T02:03:25;5.00;;;3.97;;
20034;SDS011;10178;48.034;9.800;2023-04-03T02:05:51;5.13;;;4.45;;
20034;SDS011;10178;48.034;9.800;2023-04-03T02:08:17;4.40;;;4.00;;
20034;SDS011;10178;48.034;9.800;2023-04-03T02:10:49;4.90;;;4.03;;
20034;SDS011;10178;48.034;9.800;2023-04-03T02:13:15;4.43;;;3.92;;
20034;SDS011;10178;48.034;9.800;2023-04-03T02:15:41;6.03;;;4.45;;
20034;SDS011;10178;48.034;9.800;2023-04-03T02:18:07;6.00;;;4.40;;
20034;SDS011;10178;48.034;9.800;2023-04-03T02:20:33;4.25;;;3.85;;
20034;SDS011;10178;48.034;9.800;2023-04-03T02:22:59;4.33;;;3.93;;
20034;SDS011;10178;48.034;9.800;2023-04-03T02:25:25;4.47;;;4.00;;
20034;SDS011;10178;48.034;9.800;2023-04-03T02:27:51;4.20;;;3.80;;
20034;SDS011;10178;48.034;9.800;2023-04-03T02:30:17;4.87;;;4.13;;
20034;SDS011;10178;48.034;9.800;2023-04-03T02:32:42;4.30;;;3.90;;
20034;SDS011;10178;48.034;9.800;2023-04-03T02:35:09;4.18;;;3.80;;
20034;SDS011;10178;48.034;9.800;2023-04-03T02:37:35;4.47;;;4.07;;
20034;SDS011;10178;48.034;9.800;2023-04-03T02:40:01;4.37;;;3.97;;
20034;SDS011;10178;48.034;9.800;2023-04-03T02:42:26;4.95;;;3.97;;
20034;SDS011;10178;48.034;9.800;2023-04-03T02:44:52;4.30;;;3.63;;
20034;SDS011;10178;48.034;9.800;2023-04-03T02:47:17;4.13;;;3.72;;
20034;SDS011;10178;48.034;9.800;2023-04-03T02:49:43;4.40;;;3.77;;
20034;SDS011;10178;48.034;9.800;2023-04-03T02:52:10;4.45;;;4.05;;
20034;SDS011;10178;48.034;9.800;2023-04-03T02:54:37;4.88;;;3.63;;
20034;SDS011;10178;48.034;9.800;2023-04-03T02:57:02;4.20;;;3.80;;
20034;SDS011;10178;48.034;9.800;2023-04-03T02:59:28;4.32;;;3.75;;
20034;SDS011;10178;48.034;9.800;2023-04-03T03:01:54;3.70;;;3.30;;
20034;SDS011;10178;48.034;9.800;2023-04-03T03:04:20;5.65;;;3.47;;
20034;SDS011;10178;48.034;9.800;2023-04-03T03:06:46;4.68;;;3.90;;
20034;SDS011;10178;48.034;9.800;2023-04-03T03:09:12;4.93;;;3.80;;
20034;SDS011;10178;48.034;9.800;2023-04-03T03:11:38;4.30;;;3.90;;
20034;SDS011;10178;48.034;9.800;2023-04-03T03:14:04;4.43;;;4.03;;
20034;SDS011;10178;48.034;9.800;2023-04-03T03:16:30;4.95;;;3.40;;
20034;SDS011;10178;48.034;9.800;2023-04-03T03:18:56;3.90;;;3.50;;
20034;SDS011;10178;48.034;9.800;2023-04-03T03:21:21;3.80;;;3.50;;
20034;SDS011;10178;48.034;9.800;2023-04-03T03:23:47;4.05;;;3.65;;
20034;SDS011;10178;48.034;9.800;2023-04-03T03:26:13;4.23;;;3.83;;
20034;SDS011;10178;48.034;9.800;2023-04-03T03:28:39;4.60;;;4.20;;
20034;SDS011;10178;48.034;9.800;2023-04-03T03:31:05;6.72;;;3.63;;
20034;SDS011;10178;48.034;9.800;2023-04-03T03:33:32;4.32;;;3.63;;
20034;SDS011;10178;48.034;9.800;2023-04-03T03:35:58;5.00;;;3.97;;
20034;SDS011;10178;48.034;9.800;2023-04-03T03:38:24;3.63;;;3.33;;
20034;SDS011;10178;48.034;9.800;2023-04-03T03:40:50;4.03;;;3.55;;
20034;SDS011;10178;48.034;9.800;2023-04-03T03:43:16;3.78;;;3.38;;
20034;SDS011;10178;48.034;9.800;2023-04-03T03:45:42;3.92;;;3.63;;
20034;SDS011;10178;48.034;9.800;2023-04-03T03:48:09;3.87;;;3.50;;
20034;SDS011;10178;48.034;9.800;2023-04-03T03:50:35;4.53;;;3.80;;
20034;SDS011;10178;48.034;9.800;2023-04-03T03:53:00;3.90;;;3.60;;
20034;SDS011;10178;48.034;9.800;2023-04-03T03:55:26;5.05;;;3.70;;
20034;SDS011;10178;48.034;9.800;2023-04-03T03:57:52;4.30;;;3.80;;
20034;SDS011;10178;48.034;9.800;2023-04-03T04:00:18;4.03;;;3.63;;
20034;SDS011;10178;48.034;9.800;2023-04-03T04:02:43;4.25;;;3.85;;
20034;SDS011;10178;48.034;9.800;2023-04-03T04:05:09;6.13;;;4.32;;
20034;SDS011;10178;48.034;9.800;2023-04-03T04:07:35;4.67;;;4.27;;
20034;SDS011;10178;48.034;9.800;2023-04-03T04:10:01;5.00;;;4.50;;
20034;SDS011;10178;48.034;9.800;2023-04-03T04:12:26;4.47;;;4.05;;
20034;SDS011;10178;48.034;9.800;2023-04-03T04:14:52;4.47;;;3.80;;
20034;SDS011;10178;48.034;9.800;2023-04-03T04:17:17;5.43;;;3.90;;
20034;SDS011;10178;48.034;9.800;2023-04-03T04:19:43;5.13;;;3.83;;
20034;SDS011;10178;48.034;9.800;2023-04-03T04:22:09;4.82;;;4.13;;
20034;SDS011;10178;48.034;9.800;2023-04-03T04:24:35;5.18;;;4.03;;
20034;SDS011;10178;48.034;9.800;2023-04-03T04:27:00;4.97;;;3.90;;
20034;SDS011;10178;48.034;9.800;2023-04-03T04:29:26;3.72;;;3.42;;
20034;SDS011;10178;48.034;9.800;2023-04-03T04:31:51;4.17;;;3.63;;
20034;SDS011;10178;48.034;9.800;2023-04-03T04:34:17;5.28;;;4.03;;
20034;SDS011;10178;48.034;9.800;2023-04-03T04:36:43;3.63;;;3.33;;
20034;SDS011;10178;48.034;9.800;2023-04-03T04:39:08;3.97;;;3.65;;
20034;SDS011;10178;48.034;9.800;2023-04-03T04:41:34;4.40;;;4.00;;
20034;SDS011;10178;48.034;9.800;2023-04-03T04:44:00;4.00;;;3.60;;
20034;SDS011;10178;48.034;9.800;2023-04-03T04:46:26;5.50;;;4.10;;
20034;SDS011;10178;48.034;9.800;2023-04-03T04:48:51;4.50;;;3.40;;
20034;SDS011;10178;48.034;9.800;2023-04-03T04:51:17;3.83;;;3.43;;
20034;SDS011;10178;48.034;9.800;2023-04-03T04:53:44;3.72;;;3.42;;
20034;SDS011;10178;48.034;9.800;2023-04-03T04:56:09;4.10;;;3.45;;
20034;SDS011;10178;48.034;9.800;2023-04-03T04:58:35;5.55;;;3.72;;
20034;SDS011;10178;48.034;9.800;2023-04-03T05:01:10;4.17;;;3.50;;
20034;SDS011;10178;48.034;9.800;2023-04-03T05:03:36;4.87;;;3.60;;
20034;SDS011;10178;48.034;9.800;2023-04-03T05:06:02;4.43;;;3.53;;
20034;SDS011;10178;48.034;9.800;2023-04-03T05:08:27;3.72;;;3.33;;
20034;SDS011;10178;48.034;9.800;2023-04-03T05:10:53;5.33;;;3.77;;
20034;SDS011;10178;48.034;9.800;2023-04-03T05:13:19;4.03;;;3.60;;
20034;SDS011;10178;48.034;9.800;2023-04-03T05:15:45;4.27;;;3.83;;
20034;SDS011;10178;48.034;9.800;2023-04-03T05:18:11;4.45;;;3.33;;
20034;SDS011;10178;48.034;9.800;2023-04-03T05:20:37;3.53;;;3.13;;
20034;SDS011;10178;48.034;9.800;2023-04-03T05:23:03;4.03;;;3.22;;
20034;SDS011;10178;48.034;9.800;2023-04-03T05:25:29;3.33;;;3.03;;
20034;SDS011;10178;48.034;9.800;2023-04-03T05:27:55;4.37;;;3.57;;
20034;SDS011;10178;48.034;9.800;2023-04-03T05:30:20;3.53;;;3.22;;
20034;SDS011;10178;48.034;9.800;2023-04-03T05:32:46;4.80;;;3.72;;
20034;SDS011;10178;48.034;9.800;2023-04-03T05:35:12;4.50;;;3.57;;
20034;SDS011;10178;48.034;9.800;2023-04-03T05:37:38;3.83;;;3.43;;
20034;SDS011;10178;48.034;9.800;2023-04-03T05:40:05;3.92;;;3.38;;
20034;SDS011;10178;48.034;9.800;2023-04-03T05:42:31;4.20;;;3.40;;
20034;SDS011;10178;48.034;9.800;2023-04-03T05:44:57;4.93;;;3.10;;
20034;SDS011;10178;48.034;9.800;2023-04-03T05:47:23;3.47;;;3.17;;
20034;SDS011;10178;48.034;9.800;2023-04-03T05:49:49;5.47;;;3.22;;
20034;SDS011;10178;48.034;9.800;2023-04-03T05:52:31;4.37;;;3.40;;
20034;SDS011;10178;48.034;9.800;2023-04-03T05:55:00;3.50;;;2.90;;
20034;SDS011;10178;48.034;9.800;2023-04-03T05:57:26;4.63;;;3.20;;
20034;SDS011;10178;48.034;9.800;2023-04-03T05:59:51;4.60;;;3.60;;
20034;SDS011;10178;48.034;9.800;2023-04-03T06:02:18;3.28;;;2.97;;
20034;SDS011;10178;48.034;9.800;2023-04-03T06:04:45;3.87;;;2.90;;
20034;SDS011;10178;48.034;9.800;2023-04-03T06:07:13;3.03;;;2.83;;
20034;SDS011;10178;48.034;9.800;2023-04-03T06:09:41;3.10;;;2.77;;
20034;SDS011;10178;48.034;9.800;2023-04-03T06:12:07;3.58;;;3.10;;
20034;SDS011;10178;48.034;9.800;2023-04-03T06:14:33;3.30;;;3.00;;
20034;SDS011;10178;48.034;9.800;2023-04-03T06:16:59;4.90;;;2.90;;
20034;SDS011;10178;48.034;9.800;2023-04-03T06:19:24;3.00;;;2.70;;
20034;SDS011;10178;48.034;9.800;2023-04-03T06:21:50;3.00;;;2.50;;
20034;SDS011;10178;48.034;9.800;2023-04-03T06:24:17;3.00;;;2.47;;
20034;SDS011;10178;48.034;9.800;2023-04-03T06:26:44;4.03;;;2.87;;
20034;SDS011;10178;48.034;9.800;2023-04-03T06:29:11;3.47;;;2.80;;
20034;SDS011;10178;48.034;9.800;2023-04-03T06:31:36;3.20;;;2.90;;
20034;SDS011;10178;48.034;9.800;2023-04-03T06:34:02;3.33;;;3.03;;
20034;SDS011;10178;48.034;9.800;2023-04-03T06:36:28;4.70;;;3.10;;
20034;SDS011;10178;48.034;9.800;2023-04-03T06:38:54;3.10;;;2.80;;
20034;SDS011;10178;48.034;9.800;2023-04-03T06:41:20;4.27;;;3.00;;
20034;SDS011;10178;48.034;9.800;2023-04-03T06:43:46;3.10;;;2.80;;
20034;SDS011;10178;48.034;9.800;2023-04-03T06:46:16;3.83;;;2.93;;
20034;SDS011;10178;48.034;9.800;2023-04-03T06:48:43;6.57;;;3.03;;
20034;SDS011;10178;48.034;9.800;2023-04-03T06:51:20;4.80;;;2.87;;
20034;SDS011;10178;48.034;9.800;2023-04-03T06:53:47;3.00;;;2.70;;
20034;SDS011;10178;48.034;9.800;2023-04-03T06:56:14;3.33;;;2.50;;
20034;SDS011;10178;48.034;9.800;2023-04-03T06:58:40;2.90;;;2.70;;
20034;SDS011;10178;48.034;9.800;2023-04-03T07:01:06;3.23;;;2.93;;
20034;SDS011;10178;48.034;9.800;2023-04-03T07:03:32;2.90;;;2.60;;
20034;SDS011;10178;48.034;9.800;2023-04-03T07:05:58;4.10;;;2.90;;
20034;SDS011;10178;48.034;9.800;2023-04-03T07:08:24;3.03;;;2.73;;
20034;SDS011;10178;48.034;9.800;2023-04-03T07:10:51;2.80;;;2.60;;
20034;SDS011;10178;48.034;9.800;2023-04-03T07:13:16;3.63;;;2.83;;
20034;SDS011;10178;48.034;9.800;2023-04-03T07:15:42;3.23;;;2.87;;
20034;SDS011;10178;48.034;9.800;2023-04-03T07:18:07;3.30;;;2.80;;
20034;SDS011;10178;48.034;9.800;2023-04-03T07:20:34;5.00;;;3.17;;
20034;SDS011;10178;48.034;9.800;2023-04-03T07:23:00;4.13;;;2.90;;
20034;SDS011;10178;48.034;9.800;2023-04-03T07:25:27;3.47;;;2.80;;
20034;SDS011;10178;48.034;9.800;2023-04-03T07:27:53;3.33;;;2.70;;
20034;SDS011;10178;48.034;9.800;2023-04-03T07:30:19;4.30;;;2.80;;
20034;SDS011;10178;48.034;9.800;2023-04-03T07:32:45;3.33;;;3.00;;
20034;SDS011;10178;48.034;9.800;2023-04-03T07:35:11;3.63;;;3.10;;
20034;SDS011;10178;48.034;9.800;2023-04-03T07:37:37;4.57;;;3.17;;
20034;SDS011;10178;48.034;9.800;2023-04-03T07:40:03;3.20;;;2.70;;
20034;SDS011;10178;48.034;9.800;2023-04-03T07:42:29;3.23;;;2.80;;
20034;SDS011;10178;48.034;9.800;2023-04-03T07:44:55;3.67;;;2.70;;
20034;SDS011;10178;48.034;9.800;2023-04-03T07:47:21;3.10;;;2.80;;
20034;SDS011;10178;48.034;9.800;2023-04-03T07:49:47;4.00;;;2.63;;
20034;SDS011;10178;48.034;9.800;2023-04-03T07:52:13;2.87;;;2.50;;
20034;SDS011;10178;48.034;9.800;2023-04-03T07:54:40;2.97;;;2.67;;
20034;SDS011;10178;48.034;9.800;2023-04-03T07:57:06;4.60;;;2.90;;
20034;SDS011;10178;48.034;9.800;2023-04-03T07:59:32;3.73;;;2.93;;
20034;SDS011;10178;48.034;9.800;2023-04-03T08:01:57;4.67;;;3.63;;
20034;SDS011;10178;48.034;9.800;2023-04-03T08:04:23;5.27;;;3.57;;
20034;SDS011;10178;48.034;9.800;2023-04-03T08:06:49;4.43;;;3.58;;
20034;SDS011;10178;48.034;9.800;2023-04-03T08:09:15;9.50;;;4.87;;
20034;SDS011;10178;48.034;9.800;2023-04-03T08:11:41;7.07;;;4.47;;
20034;SDS011;10178;48.034;9.800;2023-04-03T08:14:07;6.90;;;4.07;;
20034;SDS011;10178;48.034;9.800;2023-04-03T08:16:33;8.30;;;4.13;;
20034;SDS011;10178;48.034;9.800;2023-04-03T08:18:58;6.23;;;4.23;;
20034;SDS011;10178;48.034;9.800;2023-04-03T08:21:24;9.23;;;3.30;;
20034;SDS011;10178;48.034;9.800;2023-04-03T08:23:51;4.20;;;3.37;;
20034;SDS011;10178;48.034;9.800;2023-04-03T08:26:17;6.90;;;3.47;;
20034;SDS011;10178;48.034;9.800;2023-04-03T08:28:45;3.60;;;3.30;;
20034;SDS011;10178;48.034;9.800;2023-04-03T08:31:13;4.20;;;3.67;;
20034;SDS011;10178;48.034;9.800;2023-04-03T08:33:40;5.60;;;3.73;;
20034;SDS011;10178;48.034;9.800;2023-04-03T08:36:07;5.87;;;3.90;;
20034;SDS011;10178;48.034;9.800;2023-04-03T08:38:41;4.00;;;3.47;;
20034;SDS011;10178;48.034;9.800;2023-04-03T08:41:12;5.63;;;3.83;;
20034;SDS011;10178;48.034;9.800;2023-04-03T08:43:56;5.10;;;3.60;;
20034;SDS011;10178;48.034;9.800;2023-04-03T08:46:48;5.78;;;3.42;;
20034;SDS011;10178;48.034;9.800;2023-04-03T08:49:40;6.77;;;3.77;;
20034;SDS011;10178;48.034;9.800;2023-04-03T08:52:12;4.70;;;3.73;;
20034;SDS011;10178;48.034;9.800;2023-04-03T08:54:52;4.57;;;3.60;;
20034;SDS011;10178;48.034;9.800;2023-04-03T08:57:20;4.43;;;3.33;;
20034;SDS011;10178;48.034;9.800;2023-04-03T09:00:02;6.23;;;4.10;;
20034;SDS011;10178;48.034;9.800;2023-04-03T09:05:13;4.77;;;3.60;;
20034;SDS011;10178;48.034;9.800;2023-04-03T09:07:49;4.13;;;3.60;;
20034;SDS011;10178;48.034;9.800;2023-04-03T09:10:26;4.90;;;3.77;;
20034;SDS011;10178;48.034;9.800;2023-04-03T09:13:39;4.43;;;3.50;;
20034;SDS011;10178;48.034;9.800;2023-04-03T09:15:45;6.73;;;4.20;;
20034;SDS011;10178;48.034;9.800;2023-04-03T09:23:30;4.70;;;3.23;;
20034;SDS011;10178;48.034;9.800;2023-04-03T09:26:06;4.23;;;3.43;;
20034;SDS011;10178;48.034;9.800;2023-04-03T09:28:39;3.97;;;3.28;;
20034;SDS011;10178;48.034;9.800;2023-04-03T09:31:41;7.30;;;3.72;;
20034;SDS011;10178;48.034;9.800;2023-04-03T09:34:06;4.00;;;3.00;;
20034;SDS011;10178;48.034;9.800;2023-04-03T09:39:10;4.80;;;3.53;;
20034;SDS011;10178;48.034;9.800;2023-04-03T09:41:37;5.17;;;3.87;;
20034;SDS011;10178;48.034;9.800;2023-04-03T09:44:17;4.23;;;3.07;;
20034;SDS011;10178;48.034;9.800;2023-04-03T09:49:48;8.50;;;3.53;;
20034;SDS011;10178;48.034;9.800;2023-04-03T09:52:22;6.87;;;3.10;;
20034;SDS011;10178;48.034;9.800;2023-04-03T09:54:50;4.33;;;3.60;;
20034;SDS011;10178;48.034;9.800;2023-04-03T09:57:15;4.63;;;3.15;;
20034;SDS011;10178;48.034;9.800;2023-04-03T09:59:46;4.23;;;3.23;;
20034;SDS011;10178;48.034;9.800;2023-04-03T10:02:34;3.50;;;3.20;;
20034;SDS011;10178;48.034;9.800;2023-04-03T10:05:23;3.77;;;3.00;;
20034;SDS011;10178;48.034;9.800;2023-04-03T10:08:11;3.67;;;3.30;;
20034;SDS011;10178;48.034;9.800;2023-04-03T10:10:40;5.43;;;2.93;;
20034;SDS011;10178;48.034;9.800;2023-04-03T10:13:09;8.67;;;3.20;;
20034;SDS011;10178;48.034;9.800;2023-04-03T10:15:45;3.30;;;2.63;;
20034;SDS011;10178;48.034;9.800;2023-04-03T10:21:14;6.27;;;2.87;;
20034;SDS011;10178;48.034;9.800;2023-04-03T10:23:54;4.07;;;2.60;;
20034;SDS011;10178;48.034;9.800;2023-04-03T10:31:57;3.00;;;2.50;;
20034;SDS011;10178;48.034;9.800;2023-04-03T10:34:35;4.47;;;3.10;;
20034;SDS011;10178;48.034;9.800;2023-04-03T10:37:14;2.63;;;2.30;;
20034;SDS011;10178;48.034;9.800;2023-04-03T10:42:46;5.18;;;3.30;;
20034;SDS011;10178;48.034;9.800;2023-04-03T10:47:55;4.07;;;2.60;;
20034;SDS011;10178;48.034;9.800;2023-04-03T10:53:31;2.87;;;2.57;;
20034;SDS011;10178;48.034;9.800;2023-04-03T10:56:19;4.10;;;2.53;;
20034;SDS011;10178;48.034;9.800;2023-04-03T10:59:00;3.10;;;2.80;;
20034;SDS011;10178;48.034;9.800;2023-04-03T11:01:38;4.03;;;2.73;;
20034;SDS011;10178;48.034;9.800;2023-04-03T11:04:07;3.23;;;2.40;;
20034;SDS011;10178;48.034;9.800;2023-04-03T11:06:57;4.40;;;2.50;;
20034;SDS011;10178;48.034;9.800;2023-04-03T11:09:23;3.47;;;2.60;;
20034;SDS011;10178;48.034;9.800;2023-04-03T11:11:53;3.30;;;2.50;;
20034;SDS011;10178;48.034;9.800;2023-04-03T11:14:32;2.83;;;2.63;;
20034;SDS011;10178;48.034;9.800;2023-04-03T11:17:10;2.73;;;2.40;;
20034;SDS011;10178;48.034;9.800;2023-04-03T11:22:27;4.93;;;2.57;;
20034;SDS011;10178;48.034;9.800;2023-04-03T11:25:30;15.53;;;10.77;;
20034;SDS011;10178;48.034;9.800;2023-04-03T11:28:00;5.35;;;4.20;;
20034;SDS011;10178;48.034;9.800;2023-04-03T11:30:28;3.67;;;2.97;;
20034;SDS011;10178;48.034;9.800;2023-04-03T11:33:27;3.78;;;2.80;;
20034;SDS011;10178;48.034;9.800;2023-04-03T11:35:55;3.33;;;2.43;;
20034;SDS011;10178;48.034;9.800;2023-04-03T11:38:34;2.95;;;2.60;;
20034;SDS011;10178;48.034;9.800;2023-04-03T11:41:06;3.30;;;2.63;;
20034;SDS011;10178;48.034;9.800;2023-04-03T11:43:33;2.73;;;2.53;;
20034;SDS011;10178;48.034;9.800;2023-04-03T11:46:05;6.40;;;3.60;;
20034;SDS011;10178;48.034;9.800;2023-04-03T11:53:41;5.13;;;3.07;;
20034;SDS011;10178;48.034;9.800;2023-04-03T12:01:42;4.73;;;2.73;;
20034;SDS011;10178;48.034;9.800;2023-04-03T12:04:11;4.07;;;3.23;;
20034;SDS011;10178;48.034;9.800;2023-04-03T12:09:29;5.03;;;3.30;;
20034;SDS011;10178;48.034;9.800;2023-04-03T12:14:53;3.93;;;2.63;;
20034;SDS011;10178;48.034;9.800;2023-04-03T12:17:20;3.23;;;2.90;;
20034;SDS011;10178;48.034;9.800;2023-04-03T12:19:51;5.60;;;3.20;;
20034;SDS011;10178;48.034;9.800;2023-04-03T12:22:17;3.90;;;2.93;;
20034;SDS011;10178;48.034;9.800;2023-04-03T12:24:50;4.27;;;3.30;;
20034;SDS011;10178;48.034;9.800;2023-04-03T12:27:24;3.97;;;2.90;;
20034;SDS011;10178;48.034;9.800;2023-04-03T12:29:59;5.17;;;3.43;;
20034;SDS011;10178;48.034;9.800;2023-04-03T12:41:04;3.50;;;2.50;;
20034;SDS011;10178;48.034;9.800;2023-04-03T12:44:29;3.17;;;2.70;;
20034;SDS011;10178;48.034;9.800;2023-04-03T12:46:50;3.90;;;2.87;;
20034;SDS011;10178;48.034;9.800;2023-04-03T12:51:45;3.97;;;2.80;;
20034;SDS011;10178;48.034;9.800;2023-04-03T12:54:19;6.90;;;3.93;;
20034;SDS011;10178;48.034;9.800;2023-04-03T12:56:46;4.97;;;3.13;;
20034;SDS011;10178;48.034;9.800;2023-04-03T12:59:16;5.57;;;2.90;;
20034;SDS011;10178;48.034;9.800;2023-04-03T13:01:57;4.83;;;3.40;;
20034;SDS011;10178;48.034;9.800;2023-04-03T13:04:24;4.67;;;3.33;;
20034;SDS011;10178;48.034;9.800;2023-04-03T13:06:52;3.57;;;3.13;;
20034;SDS011;10178;48.034;9.800;2023-04-03T13:09:22;4.47;;;3.20;;
20034;SDS011;10178;48.034;9.800;2023-04-03T13:11:51;4.37;;;2.53;;
20034;SDS011;10178;48.034;9.800;2023-04-03T13:14:22;4.30;;;3.00;;
20034;SDS011;10178;48.034;9.800;2023-04-03T13:16:53;3.50;;;3.20;;
20034;SDS011;10178;48.034;9.800;2023-04-03T13:19:38;3.77;;;2.50;;
20034;SDS011;10178;48.034;9.800;2023-04-03T13:22:28;3.97;;;2.97;;
20034;SDS011;10178;48.034;9.800;2023-04-03T13:25:04;3.70;;;3.10;;
20034;SDS011;10178;48.034;9.800;2023-04-03T13:27:31;6.27;;;2.93;;
20034;SDS011;10178;48.034;9.800;2023-04-03T13:29:58;4.97;;;2.77;;
20034;SDS011;10178;48.034;9.800;2023-04-03T13:32:26;3.67;;;1.90;;
20034;SDS011;10178;48.034;9.800;2023-04-03T13:34:53;3.67;;;2.77;;
20034;SDS011;10178;48.034;9.800;2023-04-03T13:37:24;4.63;;;2.73;;
20034;SDS011;10178;48.034;9.800;2023-04-03T13:39:57;3.33;;;2.80;;
20034;SDS011;10178;48.034;9.800;2023-04-03T13:42:30;3.70;;;2.78;;
20034;SDS011;10178;48.034;9.800;2023-04-03T13:47:50;3.53;;;2.77;;
20034;SDS011;10178;48.034;9.800;2023-04-03T13:50:19;3.80;;;2.65;;
20034;SDS011;10178;48.034;9.800;2023-04-03T13:53:01;3.45;;;2.60;;
20034;SDS011;10178;48.034;9.800;2023-04-03T13:55:51;4.43;;;2.77;;
20034;SDS011;10178;48.034;9.800;2023-04-03T13:58:23;2.90;;;2.60;;
20034;SDS011;10178;48.034;9.800;2023-04-03T14:03:47;3.08;;;2.58;;
20034;SDS011;10178;48.034;9.800;2023-04-03T14:06:25;2.50;;;2.30;;
20034;SDS011;10178;48.034;9.800;2023-04-03T14:08:51;3.10;;;2.42;;
20034;SDS011;10178;48.034;9.800;2023-04-03T14:11:19;3.28;;;2.67;;
20034;SDS011;10178;48.034;9.800;2023-04-03T14:13:53;3.08;;;2.50;;
20034;SDS011;10178;48.034;9.800;2023-04-03T14:16:21;3.58;;;2.42;;
20034;SDS011;10178;48.034;9.800;2023-04-03T14:18:49;4.32;;;2.60;;
20034;SDS011;10178;48.034;9.800;2023-04-03T14:21:17;5.78;;;2.90;;
20034;SDS011;10178;48.034;9.800;2023-04-03T14:23:44;4.00;;;2.70;;
20034;SDS011;10178;48.034;9.800;2023-04-03T14:26:15;2.55;;;2.10;;
20034;SDS011;10178;48.034;9.800;2023-04-03T14:28:45;5.37;;;2.47;;
20034;SDS011;10178;48.034;9.800;2023-04-03T14:31:12;3.53;;;2.88;;
20034;SDS011;10178;48.034;9.800;2023-04-03T14:33:39;5.83;;;2.77;;
20034;SDS011;10178;48.034;9.800;2023-04-03T14:36:19;6.85;;;2.75;;
20034;SDS011;10178;48.034;9.800;2023-04-03T14:38:47;3.35;;;2.42;;
20034;SDS011;10178;48.034;9.800;2023-04-03T14:41:16;3.67;;;2.53;;
20034;SDS011;10178;48.034;9.800;2023-04-03T14:43:43;4.85;;;2.83;;
20034;SDS011;10178;48.034;9.800;2023-04-03T14:46:12;3.75;;;2.30;;
20034;SDS011;10178;48.034;9.800;2023-04-03T14:48:41;3.10;;;2.63;;
20034;SDS011;10178;48.034;9.800;2023-04-03T14:51:06;2.80;;;2.40;;
20034;SDS011;10178;48.034;9.800;2023-04-03T14:53:34;4.20;;;2.13;;
20034;SDS011;10178;48.034;9.800;2023-04-03T14:55:59;3.83;;;2.53;;
20034;SDS011;10178;48.034;9.800;2023-04-03T14:58:25;3.63;;;2.30;;
20034;SDS011;10178;48.034;9.800;2023-04-03T15:00:52;2.42;;;2.22;;
20034;SDS011;10178;48.034;9.800;2023-04-03T15:03:19;2.95;;;2.70;;
20034;SDS011;10178;48.034;9.800;2023-04-03T15:05:46;4.85;;;2.70;;
20034;SDS011;10178;48.034;9.800;2023-04-03T15:08:23;3.20;;;1.90;;
20034;SDS011;10178;48.034;9.800;2023-04-03T15:10:51;2.72;;;1.98;;
20034;SDS011;10178;48.034;9.800;2023-04-03T15:13:18;3.95;;;2.30;;
20034;SDS011;10178;48.034;9.800;2023-04-03T15:15:44;4.28;;;2.05;;
20034;SDS011;10178;48.034;9.800;2023-04-03T15:18:15;3.95;;;1.90;;
20034;SDS011;10178;48.034;9.800;2023-04-03T15:20:44;2.63;;;1.85;;
20034;SDS011;10178;48.034;9.800;2023-04-03T15:23:12;4.15;;;2.15;;
20034;SDS011;10178;48.034;9.800;2023-04-03T15:25:40;2.35;;;1.90;;
20034;SDS011;10178;48.034;9.800;2023-04-03T15:31:00;4.93;;;2.22;;
20034;SDS011;10178;48.034;9.800;2023-04-03T15:33:26;4.10;;;2.47;;
20034;SDS011;10178;48.034;9.800;2023-04-03T15:35:52;3.20;;;2.17;;
20034;SDS011;10178;48.034;9.800;2023-04-03T15:38:17;3.55;;;2.30;;
20034;SDS011;10178;48.034;9.800;2023-04-03T15:40:43;2.70;;;2.22;;
20034;SDS011;10178;48.034;9.800;2023-04-03T15:43:09;3.25;;;2.40;;
20034;SDS011;10178;48.034;9.800;2023-04-03T15:45:35;2.75;;;2.08;;
20034;SDS011;10178;48.034;9.800;2023-04-03T15:48:02;3.07;;;2.40;;
20034;SDS011;10178;48.034;9.800;2023-04-03T15:50:29;2.17;;;1.98;;
20034;SDS011;10178;48.034;9.800;2023-04-03T15:52:56;3.83;;;2.72;;
20034;SDS011;10178;48.034;9.800;2023-04-03T15:55:26;1.95;;;1.77;;
20034;SDS011;10178;48.034;9.800;2023-04-03T15:57:53;2.47;;;1.88;;
20034;SDS011;10178;48.034;9.800;2023-04-03T16:00:20;4.82;;;1.92;;
20034;SDS011;10178;48.034;9.800;2023-04-03T16:02:47;3.47;;;2.13;;
20034;SDS011;10178;48.034;9.800;2023-04-03T16:05:15;3.20;;;2.22;;
20034;SDS011;10178;48.034;9.800;2023-04-03T16:07:42;3.60;;;2.30;;
20034;SDS011;10178;48.034;9.800;2023-04-03T16:10:10;4.15;;;2.10;;